createdAt,value
2023-02-12T00:01:29.066Z,10.20
2023-02-12T00:03:58.349Z,8.70
2023-02-12T00:06:27.177Z,9.05
2023-02-12T00:08:59.551Z,9.20
2023-02-12T00:11:27.789Z,9.00
2023-02-12T00:13:56.912Z,8.90
2023-02-12T00:16:26.179Z,8.70
2023-02-12T00:18:53.757Z,8.45
2023-02-12T00:21:25.169Z,8.38
2023-02-12T00:23:51.785Z,8.68
2023-02-12T00:26:25.329Z,8.23
2023-02-12T00:28:54.193Z,9.20
2023-02-12T00:31:25.698Z,8.30
2023-02-12T00:33:54.760Z,8.38
2023-02-12T00:36:25.115Z,8.95
2023-02-12T00:38:54.952Z,8.70
2023-02-12T00:41:22.429Z,7.93
2023-02-12T00:43:52.316Z,8.40
2023-02-12T00:46:23.831Z,8.93
2023-02-12T00:48:52.729Z,7.45
2023-02-12T00:51:19.384Z,7.90
2023-02-12T00:53:48.649Z,9.25
2023-02-12T00:56:17.471Z,8.77
2023-02-12T00:58:44.127Z,8.07
2023-02-12T01:01:10.826Z,6.68
2023-02-12T01:03:38.533Z,7.63
2023-02-12T01:06:07.793Z,7.47
2023-02-12T01:08:36.568Z,7.07
2023-02-12T01:11:04.088Z,7.97
2023-02-12T01:13:33.436Z,8.38
2023-02-12T01:16:10.881Z,7.43
2023-02-12T01:18:39.892Z,7.28
2023-02-12T01:21:27.468Z,7.40
2023-02-12T01:23:54.120Z,7.75
2023-02-12T01:26:25.685Z,7.28
2023-02-12T01:28:57.536Z,7.70
2023-02-12T01:31:26.052Z,8.38
2023-02-12T01:33:55.722Z,6.70
2023-02-12T01:36:22.465Z,7.22
2023-02-12T01:38:51.749Z,12.40
2023-02-12T01:41:26.191Z,6.93
2023-02-12T01:44:11.209Z,6.53
2023-02-12T01:46:42.545Z,6.90
2023-02-12T01:49:15.081Z,8.00
2023-02-12T01:51:41.772Z,7.55
2023-02-12T01:54:14.803Z,7.15
2023-02-12T01:56:43.913Z,6.60
2023-02-12T01:59:12.704Z,7.82
2023-02-12T02:01:44.726Z,7.00
2023-02-12T02:04:17.242Z,6.80
2023-02-12T02:07:03.887Z,7.30
2023-02-12T02:09:33.788Z,6.95
2023-02-12T02:12:22.182Z,6.93
2023-02-12T02:14:53.573Z,6.35
2023-02-12T02:17:35.548Z,6.75
2023-02-12T02:20:17.618Z,6.63
2023-02-12T02:23:07.805Z,7.53
2023-02-12T02:25:53.100Z,6.90
2023-02-12T02:28:34.034Z,6.63
2023-02-12T02:31:04.927Z,6.73
2023-02-12T02:33:38.907Z,5.88
2023-02-12T02:36:16.123Z,6.40
2023-02-12T02:38:46.043Z,6.40
2023-02-12T02:41:20.596Z,6.75
2023-02-12T02:43:53.254Z,5.90
2023-02-12T02:46:26.644Z,6.93
2023-02-12T02:48:55.348Z,6.55
2023-02-12T02:51:26.055Z,6.82
2023-02-12T02:53:58.489Z,5.88
2023-02-12T02:56:25.099Z,6.40
2023-02-12T02:58:55.420Z,6.82
2023-02-12T03:01:27.141Z,6.90
2023-02-12T03:04:02.477Z,6.30
2023-02-12T03:06:48.509Z,5.90
2023-02-12T03:09:29.613Z,6.10
2023-02-12T03:11:58.887Z,7.28
2023-02-12T03:14:32.269Z,6.18
2023-02-12T03:17:03.192Z,6.50
2023-02-12T03:19:33.602Z,6.50
2023-02-12T03:22:36.374Z,6.53
2023-02-12T03:25:15.945Z,6.03
2023-02-12T03:27:52.099Z,6.82
2023-02-12T03:30:20.905Z,5.97
2023-02-12T03:33:30.363Z,6.03
2023-02-12T03:36:16.723Z,5.97
2023-02-12T03:38:46.586Z,5.88
2023-02-12T03:41:43.795Z,5.75
2023-02-12T03:44:49.980Z,6.05
2023-02-12T03:47:25.665Z,6.05
2023-02-12T03:49:55.096Z,6.15
2023-02-12T03:52:24.034Z,6.32
2023-02-12T03:54:50.676Z,5.82
2023-02-12T03:57:21.641Z,6.07
2023-02-12T03:59:48.468Z,6.07
2023-02-12T04:02:16.312Z,6.60
2023-02-12T04:04:46.138Z,7.72
2023-02-12T04:07:12.812Z,5.97
2023-02-12T04:09:44.133Z,6.47
2023-02-12T04:17:36.570Z,5.78
2023-02-12T04:20:11.663Z,6.32
2023-02-12T04:22:56.600Z,5.60
2023-02-12T04:25:52.418Z,6.43
2023-02-12T04:28:40.867Z,7.22
2023-02-12T04:31:17.772Z,5.85
2023-02-12T04:33:54.857Z,5.93
2023-02-12T04:36:27.356Z,5.80
2023-02-12T04:38:57.380Z,5.95
2023-02-12T04:41:27.338Z,5.93
2023-02-12T04:43:58.742Z,5.95
2023-02-12T04:48:56.534Z,5.50
2023-02-12T04:51:25.429Z,5.55
2023-02-12T04:53:54.199Z,5.80
2023-02-12T04:56:20.911Z,5.85
2023-02-12T04:58:49.671Z,5.65
2023-02-12T05:01:18.632Z,5.50
2023-02-12T05:03:47.695Z,5.45
2023-02-12T05:06:16.753Z,5.78
2023-02-12T05:08:43.383Z,5.40
2023-02-12T05:11:14.826Z,6.07
2023-02-12T05:13:41.904Z,5.30
2023-02-12T05:16:10.770Z,5.40
2023-02-12T05:18:40.355Z,6.05
2023-02-12T05:21:09.142Z,5.70
2023-02-12T05:23:36.791Z,6.18
2023-02-12T05:26:07.191Z,5.00
2023-02-12T05:28:33.979Z,5.57
2023-02-12T05:31:03.894Z,5.85
2023-02-12T05:33:32.790Z,5.70
2023-02-12T05:36:09.297Z,5.80
2023-02-12T05:38:40.677Z,6.35
2023-02-12T05:41:09.032Z,6.10
2023-02-12T05:43:35.769Z,5.55
2023-02-12T05:46:03.305Z,6.22
2023-02-12T05:48:32.271Z,5.60
2023-02-12T05:51:11.828Z,5.50
2023-02-12T05:53:43.410Z,5.85
2023-02-12T05:56:39.559Z,5.18
2023-02-12T05:59:19.316Z,5.82
2023-02-12T06:01:46.419Z,5.95
2023-02-12T06:04:23.588Z,5.50
2023-02-12T06:06:55.667Z,5.38
2023-02-12T06:09:27.057Z,5.90
2023-02-12T06:11:53.646Z,5.72
2023-02-12T06:14:22.574Z,5.60
2023-02-12T06:16:52.085Z,5.78
2023-02-12T06:19:22.186Z,5.97
2023-02-12T06:21:48.892Z,5.38
2023-02-12T06:24:19.053Z,5.00
2023-02-12T06:26:47.963Z,5.63
2023-02-12T06:29:19.368Z,5.82
2023-02-12T06:31:48.480Z,5.47
2023-02-12T06:34:18.394Z,5.90
2023-02-12T06:36:46.030Z,5.57
2023-02-12T06:39:15.615Z,5.22
2023-02-12T06:41:42.395Z,4.95
2023-02-12T06:44:12.809Z,4.75
2023-02-12T06:46:39.609Z,5.50
2023-02-12T06:49:08.472Z,5.63
2023-02-12T06:51:36.461Z,5.45
2023-02-12T06:54:05.294Z,5.20
2023-02-12T06:56:34.239Z,5.88
2023-02-12T06:59:05.587Z,5.20
2023-02-12T07:04:02.604Z,6.57
2023-02-12T07:06:32.674Z,6.63
2023-02-12T07:09:04.024Z,4.90
2023-02-12T07:13:58.159Z,17.33
2023-02-12T07:16:27.018Z,14.23
2023-02-12T07:18:56.504Z,13.73
2023-02-12T07:21:35.028Z,14.50
2023-02-12T07:24:06.346Z,14.93
2023-02-12T07:29:04.615Z,13.93
2023-02-12T07:31:31.487Z,13.00
2023-02-12T07:33:59.007Z,14.57
2023-02-12T07:36:28.890Z,13.07
2023-02-12T07:38:58.238Z,12.05
2023-02-12T07:41:31.041Z,11.65
2023-02-12T07:44:04.472Z,12.05
2023-02-12T07:46:33.948Z,12.48
2023-02-12T07:49:04.495Z,11.20
2023-02-12T07:51:32.755Z,10.13
2023-02-12T07:54:02.115Z,11.20
2023-02-12T07:56:35.257Z,10.70
2023-02-12T07:59:04.255Z,9.95
2023-02-12T08:01:33.384Z,9.30
2023-02-12T08:04:01.811Z,10.43
2023-02-12T08:06:29.951Z,9.82
2023-02-12T08:09:00.765Z,11.05
2023-02-12T08:11:33.057Z,10.25
2023-02-12T08:14:02.462Z,11.15
2023-02-12T08:16:29.822Z,10.25
2023-02-12T08:19:00.688Z,9.93
2023-02-12T08:21:41.765Z,12.43
2023-02-12T08:24:12.670Z,19.70
2023-02-12T08:26:42.043Z,17.88
2023-02-12T08:29:25.120Z,19.55
2023-02-12T08:31:56.028Z,21.48
2023-02-12T08:34:24.697Z,18.75
2023-02-12T08:36:54.549Z,18.38
2023-02-12T08:39:27.542Z,19.50
2023-02-12T08:41:57.500Z,20.45
2023-02-12T08:44:26.986Z,18.30
2023-02-12T08:46:55.857Z,17.05
2023-02-12T08:49:26.831Z,17.20
2023-02-12T08:52:00.417Z,18.60
2023-02-12T08:54:27.781Z,16.00
2023-02-12T08:56:58.376Z,16.40
2023-02-12T08:59:27.188Z,18.00
2023-02-12T09:01:56.091Z,16.52
2023-02-12T09:04:29.552Z,16.45
2023-02-12T09:06:58.886Z,15.35
2023-02-12T09:09:25.479Z,17.10
2023-02-12T09:11:56.827Z,15.80
2023-02-12T09:14:26.032Z,17.00
2023-02-12T09:16:57.479Z,15.25
2023-02-12T09:19:26.475Z,15.52
2023-02-12T09:21:55.800Z,16.38
2023-02-12T09:24:22.971Z,16.52
2023-02-12T09:26:49.642Z,16.42
2023-02-12T09:29:16.238Z,17.20
2023-02-12T09:31:48.284Z,16.98
2023-02-12T09:34:17.098Z,17.00
2023-02-12T09:36:43.713Z,14.80
2023-02-12T09:39:15.594Z,16.33
2023-02-12T09:42:03.231Z,16.95
2023-02-12T09:44:56.011Z,15.25
2023-02-12T09:47:28.509Z,15.88
2023-02-12T09:50:28.738Z,14.52
2023-02-12T09:52:56.993Z,14.57
2023-02-12T09:55:23.678Z,14.55
2023-02-12T09:57:54.788Z,14.25
2023-02-12T10:02:50.529Z,14.75
2023-02-12T10:05:23.398Z,14.55
2023-02-12T10:08:14.153Z,14.60
2023-02-12T10:11:22.335Z,13.63
2023-02-12T10:14:09.209Z,14.55
2023-02-12T10:16:46.774Z,14.68
2023-02-12T10:19:35.716Z,12.68
2023-02-12T10:22:13.092Z,12.60
2023-02-12T10:24:58.093Z,12.95
2023-02-12T10:27:51.766Z,14.73
2023-02-12T10:30:25.573Z,15.20
2023-02-12T10:32:58.948Z,13.45
2023-02-12T10:35:28.772Z,17.33
2023-02-12T10:38:02.050Z,13.40
2023-02-12T10:40:34.014Z,15.25
2023-02-12T10:43:04.264Z,13.25
2023-02-12T10:45:37.490Z,15.23
2023-02-12T10:48:06.047Z,13.52
2023-02-12T10:51:09.331Z,13.20
2023-02-12T10:53:45.845Z,14.32
2023-02-12T10:56:19.201Z,14.77
2023-02-12T10:58:59.652Z,13.10
2023-02-12T11:01:35.763Z,13.80
2023-02-12T11:04:43.223Z,14.98
2023-02-12T11:07:09.909Z,12.30
2023-02-12T11:09:46.182Z,20.20
2023-02-12T11:12:36.177Z,19.50
2023-02-12T11:15:20.045Z,19.02
2023-02-12T11:17:57.592Z,17.15
2023-02-12T11:20:26.379Z,18.13
2023-02-12T11:23:00.708Z,18.42
2023-02-12T11:25:29.540Z,17.05
2023-02-12T11:28:03.630Z,17.80
2023-02-12T11:30:33.134Z,24.73
2023-02-12T11:33:37.637Z,20.17
2023-02-12T11:36:11.998Z,20.13
2023-02-12T11:38:57.221Z,18.30
2023-02-12T11:41:39.071Z,17.60
2023-02-12T11:44:23.009Z,19.33
2023-02-12T11:47:09.129Z,19.48
2023-02-12T11:49:42.677Z,18.50
2023-02-12T11:52:21.644Z,19.30
2023-02-12T11:54:55.027Z,16.77
2023-02-12T11:57:59.309Z,19.42
2023-02-12T12:00:31.325Z,18.67
2023-02-12T12:02:57.898Z,16.80
2023-02-12T12:05:30.780Z,16.52
2023-02-12T12:07:59.801Z,16.60
2023-02-12T12:10:36.843Z,17.50
2023-02-12T12:13:07.813Z,18.92
2023-02-12T12:15:59.077Z,16.83
2023-02-12T12:18:52.101Z,18.90
2023-02-12T12:21:41.536Z,20.20
2023-02-12T12:24:37.482Z,15.88
2023-02-12T12:27:39.331Z,15.38
2023-02-12T12:30:11.178Z,19.33
2023-02-12T12:32:38.427Z,16.23
2023-02-12T12:35:17.436Z,16.15
2023-02-12T12:37:55.071Z,15.52
2023-02-12T12:40:46.832Z,15.82
2023-02-12T12:43:19.318Z,17.35
2023-02-12T12:46:10.639Z,16.05
2023-02-12T12:49:05.227Z,16.05
2023-02-12T12:51:46.911Z,15.95
2023-02-12T12:57:09.732Z,19.80
2023-02-12T12:59:55.219Z,15.75
2023-02-12T13:02:38.353Z,16.27
2023-02-12T13:05:20.380Z,15.38
2023-02-12T13:07:53.027Z,15.63
2023-02-12T13:10:44.069Z,15.80
2023-02-12T13:13:35.619Z,16.00
2023-02-12T13:16:11.638Z,15.45
2023-02-12T13:18:56.279Z,15.65
2023-02-12T13:21:51.580Z,15.40
2023-02-12T13:24:33.483Z,15.32
2023-02-12T13:27:02.369Z,16.50
2023-02-12T13:29:34.302Z,15.05
2023-02-12T13:32:06.531Z,16.08
2023-02-12T13:34:37.134Z,16.10
2023-02-12T13:37:09.511Z,15.83
2023-02-12T13:39:39.508Z,17.80
2023-02-12T13:42:24.951Z,16.45
2023-02-12T13:45:24.308Z,16.30
2023-02-12T13:47:56.092Z,16.42
2023-02-12T13:51:01.564Z,17.95
2023-02-12T13:53:34.621Z,16.85
2023-02-12T13:56:12.096Z,18.25
2023-02-12T13:58:45.566Z,17.10
2023-02-12T14:01:15.471Z,16.42
2023-02-12T14:03:44.441Z,18.17
2023-02-12T14:06:21.193Z,19.75
2023-02-12T14:08:55.097Z,19.90
2023-02-12T14:11:24.917Z,17.90
2023-02-12T14:13:59.253Z,18.92
2023-02-12T14:16:28.926Z,16.70
2023-02-12T14:19:33.231Z,16.88
2023-02-12T14:22:03.264Z,16.83
2023-02-12T14:24:36.179Z,16.48
2023-02-12T14:27:18.445Z,17.13
2023-02-12T14:30:09.944Z,16.27
2023-02-12T14:35:26.543Z,16.88
2023-02-12T14:37:56.875Z,16.45
2023-02-12T14:40:40.772Z,16.35
2023-02-12T14:43:26.688Z,22.65
2023-02-12T14:45:54.578Z,48.28
2023-02-12T14:49:06.124Z,50.85
2023-02-12T14:51:51.580Z,34.42
2023-02-12T14:54:37.673Z,28.75
2023-02-12T14:57:12.045Z,25.00
2023-02-12T14:59:40.661Z,26.42
2023-02-12T15:02:11.412Z,29.95
2023-02-12T15:04:41.492Z,23.42
2023-02-12T15:07:31.574Z,22.83
2023-02-12T15:10:10.135Z,27.13
2023-02-12T15:12:41.302Z,22.65
2023-02-12T15:15:39.966Z,24.80
2023-02-12T15:18:20.618Z,26.52
2023-02-12T15:21:03.702Z,24.47
2023-02-12T15:23:36.248Z,19.27
2023-02-12T15:26:06.654Z,24.08
2023-02-12T15:28:36.349Z,21.27
2023-02-12T15:31:07.406Z,22.08
2023-02-12T15:33:35.215Z,24.85
2023-02-12T15:36:05.110Z,22.00
2023-02-12T15:38:36.874Z,20.60
2023-02-12T15:41:04.053Z,19.95
2023-02-12T15:43:36.820Z,24.05
2023-02-12T15:46:06.711Z,19.73
2023-02-12T15:48:35.259Z,19.38
2023-02-12T15:51:01.904Z,22.75
2023-02-12T15:53:30.715Z,21.77
2023-02-12T15:56:03.054Z,19.25
2023-02-12T15:58:37.192Z,16.92
2023-02-12T16:01:07.570Z,23.20
2023-02-12T16:03:38.077Z,22.15
2023-02-12T16:06:14.117Z,23.43
2023-02-12T16:08:44.023Z,33.47
2023-02-12T16:11:16.015Z,32.08
2023-02-12T16:13:51.359Z,31.85
2023-02-12T16:16:28.917Z,28.38
2023-02-12T16:19:26.544Z,25.58
2023-02-12T16:22:02.450Z,26.02
2023-02-12T16:24:39.833Z,27.08
2023-02-12T16:27:15.805Z,24.27
2023-02-12T16:29:55.497Z,22.15
2023-02-12T16:32:41.881Z,23.67
2023-02-12T16:35:11.473Z,24.10
2023-02-12T16:37:38.062Z,29.58
2023-02-12T16:40:13.713Z,23.48
2023-02-12T16:42:46.309Z,22.77
2023-02-12T16:45:26.565Z,24.90
2023-02-12T16:48:09.017Z,22.63
2023-02-12T16:50:38.281Z,21.38
2023-02-12T16:53:22.660Z,23.15
2023-02-12T16:55:51.958Z,23.27
2023-02-12T16:58:20.848Z,21.40
2023-02-12T17:00:51.232Z,20.00
2023-02-12T17:03:18.234Z,18.30
2023-02-12T17:05:49.435Z,18.65
2023-02-12T17:08:23.380Z,20.17
2023-02-12T17:10:50.177Z,18.95
2023-02-12T17:13:19.065Z,18.48
2023-02-12T17:15:59.373Z,19.42
2023-02-12T17:18:28.347Z,18.90
2023-02-12T17:20:56.399Z,21.45
2023-02-12T17:23:27.828Z,21.75
2023-02-12T17:25:57.249Z,19.00
2023-02-12T17:28:26.871Z,19.73
2023-02-12T17:30:53.811Z,19.23
2023-02-12T17:33:26.018Z,19.98
2023-02-12T17:35:55.423Z,20.50
2023-02-12T17:38:26.234Z,18.25
2023-02-12T17:40:58.040Z,19.13
2023-02-12T17:43:29.654Z,20.10
2023-02-12T17:51:01.582Z,21.30
2023-02-12T17:53:30.719Z,20.45
2023-02-12T17:56:02.974Z,19.77
2023-02-12T17:58:35.096Z,20.85
2023-02-12T18:01:11.144Z,20.05
2023-02-12T18:03:40.093Z,18.58
2023-02-12T18:06:09.620Z,18.85
2023-02-12T18:08:38.632Z,19.90
2023-02-12T18:11:06.411Z,20.83
2023-02-12T18:13:35.681Z,19.17
2023-02-12T18:16:06.233Z,18.42
2023-02-12T18:21:12.112Z,18.95
2023-02-12T18:23:41.043Z,19.85
2023-02-12T18:26:15.124Z,18.23
2023-02-12T18:28:44.202Z,20.20
2023-02-12T18:31:11.185Z,18.67
2023-02-12T18:33:38.148Z,18.63
2023-02-12T18:36:18.299Z,18.85
2023-02-12T18:38:48.694Z,19.30
2023-02-12T18:41:19.065Z,19.20
2023-02-12T18:43:47.911Z,18.53
2023-02-12T18:46:24.382Z,19.80
2023-02-12T18:48:53.627Z,19.73
2023-02-12T18:51:24.568Z,20.13
2023-02-12T18:54:01.579Z,19.77
2023-02-12T18:56:35.190Z,22.45
2023-02-12T18:59:05.073Z,24.50
2023-02-12T19:01:34.519Z,26.80
2023-02-12T19:04:06.766Z,27.35
2023-02-12T19:06:33.991Z,31.90
2023-02-12T19:09:04.138Z,32.72
2023-02-12T19:11:32.984Z,34.72
2023-02-12T19:14:04.328Z,37.67
2023-02-12T19:16:33.593Z,41.30
2023-02-12T19:19:02.725Z,43.00
2023-02-12T19:21:29.418Z,46.45
2023-02-12T19:24:01.960Z,46.13
2023-02-12T19:26:32.066Z,47.10
2023-02-12T19:29:01.250Z,47.53
2023-02-12T19:31:33.288Z,50.20
2023-02-12T19:34:02.892Z,49.83
2023-02-12T19:36:32.867Z,48.30
2023-02-12T19:39:05.892Z,48.55
2023-02-12T19:41:41.168Z,48.83
2023-02-12T19:44:12.868Z,47.38
2023-02-12T19:46:40.621Z,45.85
2023-02-12T19:49:12.832Z,47.55
2023-02-12T19:51:41.801Z,48.58
2023-02-12T19:54:11.285Z,47.10
2023-02-12T19:56:37.998Z,46.05
2023-02-12T19:59:06.946Z,46.00
2023-02-12T20:01:34.015Z,44.00
2023-02-12T20:04:03.846Z,44.78
2023-02-12T20:06:35.734Z,44.22
2023-02-12T20:09:07.144Z,45.47
2023-02-12T20:11:34.960Z,43.45
2023-02-12T20:14:07.585Z,42.92
2023-02-12T20:16:38.945Z,44.15
2023-02-12T20:21:40.161Z,42.70
2023-02-12T20:24:09.622Z,43.53
2023-02-12T20:26:39.078Z,42.60
2023-02-12T20:29:05.849Z,44.05
2023-02-12T20:31:36.333Z,43.28
2023-02-12T20:34:14.317Z,42.83
2023-02-12T20:36:41.932Z,40.60
2023-02-12T20:39:09.734Z,43.85
2023-02-12T20:41:39.035Z,42.97
2023-02-12T20:44:06.796Z,44.22
2023-02-12T20:46:39.654Z,42.75
2023-02-12T20:49:09.545Z,41.83
2023-02-12T20:51:39.612Z,40.47
2023-02-12T20:54:07.263Z,40.88
2023-02-12T20:56:39.174Z,40.10
2023-02-12T20:59:08.242Z,41.72
2023-02-12T21:01:38.576Z,40.70
2023-02-12T21:04:10.159Z,37.88
2023-02-12T21:06:40.016Z,39.50
2023-02-12T21:09:10.470Z,40.28
2023-02-12T21:11:39.752Z,40.17
2023-02-12T21:14:21.278Z,40.47
2023-02-12T21:16:49.665Z,39.15
2023-02-12T21:19:21.106Z,39.30
2023-02-12T21:21:47.903Z,40.17
2023-02-12T21:24:22.045Z,39.97
2023-02-12T21:26:54.050Z,38.92
2023-02-12T21:29:23.144Z,37.35
2023-02-12T21:31:55.054Z,37.63
2023-02-12T21:34:25.831Z,38.92
2023-02-12T21:36:55.675Z,36.70
2023-02-12T21:39:29.219Z,39.60
2023-02-12T21:42:00.946Z,37.42
2023-02-12T21:44:30.303Z,38.55
2023-02-12T21:46:58.967Z,36.17
2023-02-12T21:49:28.613Z,35.55
2023-02-12T21:52:02.730Z,36.53
2023-02-12T21:54:31.783Z,37.78
2023-02-12T21:56:58.618Z,36.88
2023-02-12T21:59:25.490Z,36.97
2023-02-12T22:01:55.350Z,37.10
2023-02-12T22:04:24.278Z,36.45
2023-02-12T22:06:54.109Z,37.22
2023-02-12T22:09:21.656Z,35.63
2023-02-12T22:11:52.355Z,37.70
2023-02-12T22:14:24.828Z,50.20
2023-02-12T22:16:54.818Z,57.20
2023-02-12T22:19:23.545Z,59.42
2023-02-12T22:21:52.889Z,59.70
2023-02-12T22:24:19.712Z,56.90
2023-02-12T22:26:46.401Z,47.38
2023-02-12T22:29:20.792Z,45.88
2023-02-12T22:31:51.025Z,47.88
2023-02-12T22:34:19.607Z,56.15
2023-02-12T22:36:46.393Z,45.13
2023-02-12T22:39:17.854Z,45.08
2023-02-12T22:41:44.677Z,39.65
2023-02-12T22:44:12.887Z,42.67
2023-02-12T22:46:45.408Z,40.22
2023-02-12T22:49:14.711Z,37.75
2023-02-12T22:51:44.236Z,37.20
2023-02-12T22:54:13.799Z,38.03
2023-02-12T22:56:41.114Z,35.53
2023-02-12T22:59:07.841Z,37.10
2023-02-12T23:01:37.380Z,36.38
2023-02-12T23:04:06.499Z,36.95
2023-02-12T23:06:33.328Z,35.70
2023-02-12T23:09:03.820Z,34.50
2023-02-12T23:11:32.513Z,34.27
2023-02-12T23:13:59.473Z,32.70
2023-02-12T23:16:28.571Z,32.20
2023-02-12T23:18:56.550Z,32.30
2023-02-12T23:21:25.969Z,33.50
2023-02-12T23:23:55.165Z,32.72
2023-02-12T23:26:21.932Z,31.77
2023-02-12T23:28:48.704Z,31.45
2023-02-12T23:31:17.649Z,30.98
2023-02-12T23:33:49.106Z,32.13
2023-02-12T23:36:17.924Z,32.35
2023-02-12T23:38:46.946Z,33.35
2023-02-12T23:41:13.697Z,32.80
2023-02-12T23:43:40.288Z,32.60
2023-02-12T23:46:09.167Z,31.30
2023-02-12T23:48:38.735Z,31.92
2023-02-12T23:51:07.590Z,29.33
2023-02-12T23:53:34.240Z,29.95
2023-02-12T23:56:03.156Z,30.27
2023-02-12T23:58:31.942Z,30.40
